Decoded Metar for LFOB (BEAUVAIS in FRANCE) (IATA:BVA) | Meteo·Mobile Aviation Weather
aviador You're here:

LFOB Decoded Metar

BEAUVAIS in FRANCE
Report Time2018-12-16 17:30:00
UTC Time2018-12-16 17:50:15
Flight Rules lifr LIFR
Wind150° at 04 kt
W.Decomp.*RWY 12: 3.4 kt HW 2.1 kt RCW
RWY 22: 1.4 kt HW 3.7 kt LCW
W.Rank150° ranks 33
Current wind is below 150° avg. (6.1)
Visibility4200 m
Phenomena:Mist
Clouds:Overcast 002 Hf
Ceiling200 ft
Temp05°C (ISA -9)
Dew Point05°C (100% RH)
AAT2.4°C
QNH1010 hPa
Density Alt-535 ft
Elevation364 ft
Report Wrong Elevation
Raw Report
LFOB 161730Z AUTO 15004KT 4200 BR OVC002 05/05 Q1010 NOSIG=

Extra information for LFOB:More info

Metar Taf Metar & Taf Last 4 Metars F.Rules Stats Wind Profile Meteogram Temp Stats Airport Information Weather charts Add Link Nearby VenuesMetar ALERT Operation Metar Decoded Social comments